LTAF/ADA METAR and TAF weather

Enter ICAO airport designator
Station Type Date Time Source
LTAF METAR 2020/12/01 20:20 UTC NOAA

LTAF 012020Z 34003KT 4800 BR FEW035 SCT100 12/10 Q1016 BECMG TL2200 CAVOK


Station Type Date Time Source
LTAF Decoded METAR 2020/12/01 20:20 UTC NOAA

Adana / Sakirpasa, Turkey (LTAF) 36-59N 035-18E 20M
Dec 01, 2020 - 03:20 PM EST / 2020.12.01 2020 UTC
Wind: from the NNW (340 degrees) at 3 MPH (3 KT):0
Visibility: 2 mile(s):0
Sky conditions: partly cloudy
Weather: mist
Temperature: 53 F (12 C)
Dew Point: 50 F (10 C)
Relative Humidity: 87%
Pressure (altimeter): 30.00 in. Hg (1016 hPa)
ob: LTAF 012020Z 34003KT 4800 BR FEW035 SCT100 12/10 Q1016 BECMG TL2200 CAVOK
cycle: 20

Station Type Date Time Source
LTAF TAF 2020/12/01 18:01 UTC NOAA

TAF LTAF 011640Z 0118/0218 VRB02KT 4000 BR SCT035 BKN100
BECMG 0120/0122 CAVOK PROB40
TEMPO 0203/0207 4000 BR

Example: see airport list